Latest Coastal Weather Observations for Aireys Inlet

IDV60701

Issued at 5:55 am EST Saturday 26 July 2014 (issued every 10 minutes, with the page automatically refreshed every 10 minutes)

About coastal observations | Map of coastal stations | Coastal observations for VIC | Marine services | Other Formats
Station Details ID: 090180 Name: AIREYS INLET Lat: -38.46 Lon: 144.09 Height: 95.0 m
Data from the previous 72 hours. | See also: Recent months at Aireys Inlet
Date/Time
EST
Temp

°C
Wind Pressure Rain
since 9am
mm
Weather Cloud Vis
km
Sea
Height
m
Swell
Dir
 
Speed
knots
Gust
knots
hPa Trend Height
m
Period
s
Dir
26/05:30am 11.5 W 5 12 - - 4.6 - - - - - - -
26/05:00am 11.4 WNW 10 16 - - 4.6 - - - - - - -
26/04:30am 11.4 WNW 13 20 - - 4.6 - - - - - - -
26/04:00am 11.3 NW 14 20 - - 4.6 - - - - - - -
26/03:30am 11.3 NW 15 23 - - 4.6 - - - - - - -
26/03:00am 11.3 NW 9 16 - - 4.6 - - - - - - -
26/02:30am 11.0 NW 12 19 - - 4.6 - - - - - - -
26/02:00am 11.0 NW 9 15 - - 4.6 - - - - - - -
26/01:30am 11.0 NW 7 13 - - 4.6 - - - - - - -
26/01:00am 11.0 NW 7 12 - - 4.6 - - - - - - -
26/12:30am 11.2 NW 14 22 - - 4.6 - - - - - - -
26/12:00am 11.3 NW 10 15 - - 4.6 - - - - - - -
 
Date/Time
EST
Temp

°C
Wind Pressure Rain
since 9am
mm
Weather Cloud Vis
km
Sea
Height
m
Swell
Dir
 
Speed
knots
Gust
knots
hPa Trend Height
m
Period
s
Dir
25/11:30pm 11.2 NW 11 17 - - 4.6 - - - - - - -
25/11:00pm 11.4 NW 10 18 - - 4.6 - - - - - - -
25/10:30pm 11.4 NW 11 18 - - 4.6 - - - - - - -
25/10:00pm 11.2 NW 12 18 - - 4.6 - - - - - - -
25/09:30pm 11.3 NW 10 17 - - 4.6 - - - - - - -
25/09:00pm 11.3 NW 10 17 - - 4.6 - - - - - - -
25/08:30pm 11.0 NNW 8 12 - - 4.6 - - - - - - -
25/08:00pm 10.9 NNW 8 11 - - 4.6 - - - - - - -
25/07:30pm 10.9 NW 10 13 - - 4.6 - - - - - - -
25/07:00pm 11.1 NW 9 15 - - 4.4 - - - - - - -
25/06:30pm 11.6 NW 9 15 - - 4.0 - - - - - - -
25/06:00pm 11.8 NW 12 17 - - 4.0 Recent precip. - - - - - -
25/05:30pm 11.7 NW 10 18 - - 4.0 - - - - - - -
25/05:00pm 11.6 NNW 10 17 - - 2.4 - - - - - - -
25/04:30pm 12.3 NNW 10 15 - - 0.6 - - - - - - -
25/04:00pm 13.0 NNW 10 15 - - 0.6 - - - - - - -
25/03:30pm 13.0 NW 10 15 - - 0.6 - - - - - - -
25/03:00pm 12.5 NNW 10 15 - - 0.6 Recent precip. - - - - - -
25/02:30pm 12.7 NNW 9 14 - - 0.4 - - - - - - -
25/02:00pm 13.2 NNW 11 21 - - 0.2 - - - - - - -
25/01:30pm 13.6 NW 10 18 - - 0.2 - - - - - - -
25/01:00pm 13.2 NNW 13 21 - - 0.2 - - - - - - -
25/12:30pm 12.9 NNW 13 21 - - 0.2 - - - - - - -
25/12:00pm 12.8 NNW 13 22 - - 0.2 Recent precip. - - - - - -
25/11:30am 12.4 NNW 15 23 - - 0.0 - - - - - - -
25/11:00am 13.5 NNW 11 20 - - 0.0 - - - - - - -
25/10:30am 12.8 N 12 23 - - 0.0 - - - - - - -
25/10:00am 12.2 N 10 16 - - 0.0 - - - - - - -
25/09:30am 11.7 N 10 18 - - 0.0 - - - - - - -
25/09:00am 10.7 N 11 15 - - 4.6 Recent precip. - - - - - -
25/08:30am 10.3 N 11 16 - - 4.6 - - - - - - -
25/08:00am 10.7 N 13 19 - - 3.6 - - - - - - -
25/07:30am 10.4 N 10 13 - - 3.4 - - - - - - -
25/07:00am 10.3 N 9 15 - - 3.4 - - - - - - -
25/06:30am 9.9 N 5 7 - - 3.0 - - - - - - -
25/06:00am 9.1 NNE 6 7 - - 3.0 - - - - - - -
25/05:30am 9.2 NNE 6 7 - - 3.0 - - - - - - -
25/05:00am 9.6 N 8 11 - - 3.0 - - - - - - -
25/04:30am 9.3 NNE 4 5 - - 3.0 - - - - - - -
25/04:00am 9.7 N 5 8 - - 3.0 - - - - - - -
25/03:30am 9.9 N 6 8 - - 3.0 - - - - - - -
25/03:00am 10.1 N 6 9 - - 3.0 - - - - - - -
25/02:30am 10.0 N 8 11 - - 3.0 - - - - - - -
25/02:00am 10.0 N 6 9 - - 3.0 - - - - - - -
25/01:30am 9.8 N 5 9 - - 3.0 - - - - - - -
25/01:00am 9.5 NNE 6 11 - - 3.0 - - - - - - -
25/12:30am 9.6 NNE 6 9 - - 3.0 - - - - - - -
25/12:00am 10.0 NNE 7 10 - - 3.0 - - - - - - -
 
Date/Time
EST
Temp

°C
Wind Pressure Rain
since 9am
mm
Weather Cloud Vis
km
Sea
Height
m
Swell
Dir
 
Speed
knots
Gust
knots
hPa Trend Height
m
Period
s
Dir
24/11:30pm 10.0 NNE 7 10 - - 3.0 - - - - - - -
24/11:00pm 10.2 NNE 7 9 - - 3.0 - - - - - - -
24/10:30pm 10.2 NNE 7 10 - - 3.0 - - - - - - -
24/10:00pm 10.3 N 5 8 - - 3.0 - - - - - - -
24/09:30pm 10.1 N 5 7 - - 3.0 - - - - - - -
24/09:00pm 9.8 N 3 4 - - 3.0 - - - - - - -
24/08:30pm 9.7 NNE 3 4 - - 3.0 - - - - - - -
24/08:00pm 9.6 NNE 4 5 - - 3.0 - - - - - - -
24/07:30pm 9.6 NNE 6 8 - - 3.0 - - - - - - -
24/07:00pm 9.7 N 6 8 - - 3.0 - - - - - - -
24/06:30pm 9.9 NNE 6 8 - - 3.0 - - - - - - -
24/06:00pm 10.3 NE 7 12 - - 3.0 - - - - - - -
24/05:30pm 10.4 NE 8 12 - - 3.0 - - - - - - -
24/05:00pm 10.5 NE 9 15 - - 3.0 - - - - - - -
24/04:30pm 10.4 NE 9 13 - - 3.0 - - - - - - -
24/04:00pm 10.1 NE 6 10 - - 2.8 - - - - - - -
24/03:30pm 10.3 NE 6 9 - - 2.4 - - - - - - -
24/03:00pm 10.4 ENE 5 11 - - 2.4 - - - - - - -
24/02:30pm 10.4 ENE 6 9 - - 2.4 - - - - - - -
24/02:00pm 10.5 NE 3 5 - - 2.4 - - - - - - -
24/01:30pm 9.7 NE 4 6 - - 2.4 - - - - - - -
24/01:00pm 9.7 NE 3 6 - - 2.4 - - - - - - -
24/12:30pm 9.7 NE 3 4 - - 2.4 - - - - - - -
24/12:00pm 9.4 NE 4 5 - - 2.2 Rain - - - - - -
24/11:30am 9.2 NNE 5 7 - - 1.6 - - - - - - -
24/11:00am 9.0 NNE 6 9 - - 1.0 - - - - - - -
24/10:30am 9.1 NNE 5 7 - - 0.6 - - - - - - -
24/10:00am 9.0 N 6 10 - - 0.4 - - - - - - -
24/09:30am 8.5 NNE 5 8 - - 0.2 - - - - - - -
24/09:00am 8.2 NNE 7 9 - - 0.4 Recent precip. - - - - - -
24/08:30am 8.0 NNE 8 11 - - 0.2 - - - - - - -
24/08:00am 7.8 NE 4 6 - - 0.2 - - - - - - -
24/07:30am 8.2 N 7 9 - - 0.2 - - - - - - -
24/07:00am 7.5 NNE 5 7 - - 0.0 - - - - - - -
24/06:30am 7.2 NNE 5 8 - - 0.0 - - - - - - -
24/06:00am 7.6 E 2 4 - - 0.0 - - - - - - -
24/05:30am 7.7 NNE 4 4 - - 0.0 - - - - - - -
24/05:00am 8.5 NNE 5 8 - - 0.0 - - - - - - -
24/04:30am 7.9 N 1 2 - - 0.0 - - - - - - -
24/04:00am 7.8 N 3 5 - - 0.0 - - - - - - -
24/03:30am 7.8 N 6 10 - - 0.0 - - - - - - -
24/03:00am 8.1 N 7 12 - - 0.0 - - - - - - -
24/02:30am 8.7 N 8 15 - - 0.0 - - - - - - -
24/02:00am 8.4 N 8 13 - - 0.0 - - - - - - -
24/01:30am 7.8 N 7 10 - - 0.0 - - - - - - -
24/01:00am 7.8 N 7 10 - - 0.0 - - - - - - -
24/12:30am 7.4 N 5 8 - - 0.0 - - - - - - -
24/12:00am 7.3 NW 5 6 - - 0.0 - - - - - - -
 
Date/Time
EST
Temp

°C
Wind Pressure Rain
since 9am
mm
Weather Cloud Vis
km
Sea
Height
m
Swell
Dir
 
Speed
knots
Gust
knots
hPa Trend Height
m
Period
s
Dir
23/11:30pm 7.5 N 6 11 - - 0.0 - - - - - - -
23/11:00pm 7.3 N 7 9 - - 0.0 - - - - - - -
23/10:30pm 7.1 N 7 8 - - 0.0 - - - - - - -
23/10:00pm 7.0 N 6 8 - - 0.0 - - - - - - -
23/09:30pm 7.1 N 6 8 - - 0.0 - - - - - - -
23/09:00pm 7.4 N 5 6 - - 0.0 - - - - - - -
23/08:30pm 7.8 N 6 7 - - 0.0 - - - - - - -
23/08:00pm 8.0 N 6 8 - - 0.0 - - - - - - -
23/07:30pm 7.6 N 6 7 - - 0.0 - - - - - - -
23/07:00pm 8.2 N 7 8 - - 0.0 - - - - - - -
23/06:30pm 7.6 NNE 6 8 - - 0.0 - - - - - - -
23/06:00pm 8.4 N 5 6 - - 0.0 - - - - - - -
23/05:30pm 8.8 N 4 5 - - 0.0 - - - - - - -
23/05:00pm 9.5 N 3 5 - - 0.0 - - - - - - -
23/04:30pm 10.5 NNE 3 4 - - 0.0 - - - - - - -
23/04:00pm 11.0 NNE 4 5 - - 0.0 - - - - - - -
23/03:30pm 11.8 NE 1 3 - - 0.0 - - - - - - -
23/03:00pm 11.7 N 2 5 - - 0.0 - - - - - - -
23/02:30pm 11.7 NW 4 6 - - 0.0 - - - - - - -
23/02:00pm 11.2 N 3 5 - - 0.0 - - - - - - -
23/01:30pm 10.8 NE 5 7 - - 0.0 - - - - - - -
23/01:00pm 9.7 NE 5 7 - - 0.0 - - - - - - -
23/12:30pm 9.6 NE 6 7 - - 0.0 - - - - - - -
23/12:00pm 9.5 NE 5 8 - - 0.0 - - - - - - -
23/11:30am 8.8 NE 5 8 - - 0.0 - - - - - - -
23/11:00am 8.4 NNE 5 8 - - 0.0 - - - - - - -
23/10:30am 7.2 NNE 5 8 - - 0.0 - - - - - - -
23/10:00am 6.0 N 6 8 - - 0.0 - - - - - - -
23/09:30am 5.6 NNE 6 9 - - 0.0 - - - - - - -
23/09:00am 5.3 N 7 9 - - 0.2 - - - - - - -
23/08:30am 5.1 N 6 8 - - 0.2 - - - - - - -
23/08:00am 4.9 N 6 8 - - 0.2 - - - - - - -
23/07:30am 4.9 NNE 4 7 - - 0.2 - - - - - - -
23/07:00am 5.1 NE 4 6 - - 0.2 - - - - - - -
23/06:30am 4.6 NNE 4 6 - - 0.0 - - - - - - -
23/06:00am 4.0 N 5 6 - - 0.0 - - - - - - -

Other Formats:

Comma delimited format used in spreadsheet applications
http://www.bom.gov.au/fwo/IDV60701/IDV60701.94846.axf

JavaScript Object Notation format (JSON) in row-major order
http://www.bom.gov.au/fwo/IDV60701/IDV60701.94846.json